sensor_id;sensor_type;location;lat;lon;timestamp;pressure;altitude;pressure_sealevel;temperature;humidity
78894;BME280;68282;42.698;23.350;2023-08-01T00:01:02;95105.78;;;23.57;49.11
78894;BME280;68282;42.698;23.350;2023-08-01T00:03:28;95102.03;;;23.53;49.21
78894;BME280;68282;42.698;23.350;2023-08-01T00:05:54;95101.84;;;23.58;49.35
78894;BME280;68282;42.698;23.350;2023-08-01T00:08:20;95110.19;;;23.58;49.40
78894;BME280;68282;42.698;23.350;2023-08-01T00:10:46;95109.53;;;23.61;49.16
78894;BME280;68282;42.698;23.350;2023-08-01T00:13:12;95101.88;;;23.40;49.39
78894;BME280;68282;42.698;23.350;2023-08-01T00:15:37;95106.94;;;23.47;49.59
78894;BME280;68282;42.698;23.350;2023-08-01T00:18:03;95104.78;;;23.35;49.74
78894;BME280;68282;42.698;23.350;2023-08-01T00:20:28;95111.66;;;23.38;49.70
78894;BME280;68282;42.698;23.350;2023-08-01T00:22:54;95091.44;;;23.20;49.81
78894;BME280;68282;42.698;23.350;2023-08-01T00:25:19;95088.94;;;23.18;49.83
78894;BME280;68282;42.698;23.350;2023-08-01T00:27:45;95102.78;;;23.18;50.02
78894;BME280;68282;42.698;23.350;2023-08-01T00:30:11;95094.19;;;23.20;49.97
78894;BME280;68282;42.698;23.350;2023-08-01T00:32:37;95100.00;;;23.00;50.77
78894;BME280;68282;42.698;23.350;2023-08-01T00:35:02;95089.38;;;22.76;51.20
78894;BME280;68282;42.698;23.350;2023-08-01T00:37:28;95101.97;;;23.00;50.77
78894;BME280;68282;42.698;23.350;2023-08-01T00:39:54;95104.41;;;23.10;50.11
78894;BME280;68282;42.698;23.350;2023-08-01T00:42:19;95110.84;;;23.20;49.98
78894;BME280;68282;42.698;23.350;2023-08-01T00:44:45;95101.19;;;23.08;50.54
78894;BME280;68282;42.698;23.350;2023-08-01T00:47:13;95106.09;;;23.20;50.22
78894;BME280;68282;42.698;23.350;2023-08-01T00:49:38;95102.53;;;23.20;49.93
78894;BME280;68282;42.698;23.350;2023-08-01T00:52:05;95101.06;;;23.31;49.87
78894;BME280;68282;42.698;23.350;2023-08-01T00:54:30;95096.16;;;23.37;49.48
78894;BME280;68282;42.698;23.350;2023-08-01T00:57:04;95098.75;;;23.42;49.41
78894;BME280;68282;42.698;23.350;2023-08-01T00:59:30;95090.09;;;23.43;49.45
78894;BME280;68282;42.698;23.350;2023-08-01T01:01:56;95093.38;;;23.45;49.85
78894;BME280;68282;42.698;23.350;2023-08-01T01:04:22;95083.91;;;23.46;49.44
78894;BME280;68282;42.698;23.350;2023-08-01T01:06:53;95092.72;;;23.49;49.26
78894;BME280;68282;42.698;23.350;2023-08-01T01:09:22;95087.50;;;23.38;49.74
78894;BME280;68282;42.698;23.350;2023-08-01T01:11:48;95086.19;;;23.44;49.78
78894;BME280;68282;42.698;23.350;2023-08-01T01:14:13;95092.41;;;23.41;49.73
78894;BME280;68282;42.698;23.350;2023-08-01T01:16:39;95074.63;;;23.34;49.88
78894;BME280;68282;42.698;23.350;2023-08-01T01:19:09;95087.31;;;23.43;49.93
78894;BME280;68282;42.698;23.350;2023-08-01T01:21:39;95076.91;;;23.40;49.87
78894;BME280;68282;42.698;23.350;2023-08-01T01:24:07;95074.13;;;23.40;50.13
78894;BME280;68282;42.698;23.350;2023-08-01T01:26:33;95070.38;;;23.45;49.77
78894;BME280;68282;42.698;23.350;2023-08-01T01:29:00;95063.66;;;23.28;50.25
78894;BME280;68282;42.698;23.350;2023-08-01T01:31:27;95060.25;;;23.31;50.37
78894;BME280;68282;42.698;23.350;2023-08-01T01:33:54;95067.91;;;23.26;50.60
78894;BME280;68282;42.698;23.350;2023-08-01T01:36:20;95066.13;;;23.30;50.53
78894;BME280;68282;42.698;23.350;2023-08-01T01:38:45;95071.50;;;23.26;50.71
78894;BME280;68282;42.698;23.350;2023-08-01T01:41:11;95067.41;;;23.24;50.60
78894;BME280;68282;42.698;23.350;2023-08-01T01:43:36;95069.38;;;23.23;50.66
78894;BME280;68282;42.698;23.350;2023-08-01T01:46:03;95070.84;;;23.21;50.88
78894;BME280;68282;42.698;23.350;2023-08-01T01:48:28;95073.59;;;23.21;50.93
78894;BME280;68282;42.698;23.350;2023-08-01T01:50:54;95076.72;;;23.19;50.96
78894;BME280;68282;42.698;23.350;2023-08-01T01:53:19;95071.97;;;23.11;51.25
78894;BME280;68282;42.698;23.350;2023-08-01T01:55:45;95077.50;;;23.11;50.98
78894;BME280;68282;42.698;23.350;2023-08-01T01:58:10;95079.28;;;23.07;51.13
78894;BME280;68282;42.698;23.350;2023-08-01T02:00:36;95065.91;;;23.00;51.42
78894;BME280;68282;42.698;23.350;2023-08-01T02:03:01;95075.34;;;22.99;51.59
78894;BME280;68282;42.698;23.350;2023-08-01T02:05:28;95073.25;;;22.96;51.41
78894;BME280;68282;42.698;23.350;2023-08-01T02:07:54;95074.06;;;22.96;51.18
78894;BME280;68282;42.698;23.350;2023-08-01T02:10:19;95074.41;;;22.95;51.47
78894;BME280;68282;42.698;23.350;2023-08-01T02:12:45;95075.34;;;22.99;51.33
78894;BME280;68282;42.698;23.350;2023-08-01T02:15:10;95073.25;;;22.96;51.06
78894;BME280;68282;42.698;23.350;2023-08-01T02:17:36;95072.91;;;22.97;51.20
78894;BME280;68282;42.698;23.350;2023-08-01T02:20:01;95072.59;;;22.90;51.20
78894;BME280;68282;42.698;23.350;2023-08-01T02:22:27;95079.91;;;22.86;51.50
78894;BME280;68282;42.698;23.350;2023-08-01T02:24:53;95073.22;;;22.78;51.53
78894;BME280;68282;42.698;23.350;2023-08-01T02:27:18;95060.00;;;22.75;51.66
78894;BME280;68282;42.698;23.350;2023-08-01T02:29:44;95064.91;;;22.78;51.49
78894;BME280;68282;42.698;23.350;2023-08-01T02:32:09;95068.00;;;22.77;51.54
78894;BME280;68282;42.698;23.350;2023-08-01T02:34:35;95051.03;;;22.69;51.52
78894;BME280;68282;42.698;23.350;2023-08-01T02:37:00;95064.72;;;22.75;51.60
78894;BME280;68282;42.698;23.350;2023-08-01T02:39:26;95062.28;;;22.73;51.83
78894;BME280;68282;42.698;23.350;2023-08-01T02:41:51;95065.38;;;22.72;51.45
78894;BME280;68282;42.698;23.350;2023-08-01T02:44:17;95059.34;;;22.69;51.61
78894;BME280;68282;42.698;23.350;2023-08-01T02:46:42;95066.03;;;22.68;51.98
78894;BME280;68282;42.698;23.350;2023-08-01T02:49:08;95073.84;;;22.66;51.56
78894;BME280;68282;42.698;23.350;2023-08-01T02:51:33;95070.91;;;22.72;51.75
78894;BME280;68282;42.698;23.350;2023-08-01T02:53:58;95063.25;;;22.68;51.84
78894;BME280;68282;42.698;23.350;2023-08-01T02:56:24;95056.88;;;22.59;51.91
78894;BME280;68282;42.698;23.350;2023-08-01T02:58:49;95069.09;;;22.58;51.99
78894;BME280;68282;42.698;23.350;2023-08-01T03:01:17;95066.47;;;22.53;51.88
78894;BME280;68282;42.698;23.350;2023-08-01T03:03:42;95070.88;;;22.54;52.27
78894;BME280;68282;42.698;23.350;2023-08-01T03:06:08;95073.66;;;22.54;52.33
78894;BME280;68282;42.698;23.350;2023-08-01T03:08:33;95071.50;;;22.51;52.53
78894;BME280;68282;42.698;23.350;2023-08-01T03:10:59;95080.19;;;22.58;52.00
78894;BME280;68282;42.698;23.350;2023-08-01T03:13:27;95083.13;;;22.62;52.04
78894;BME280;68282;42.698;23.350;2023-08-01T03:15:53;95066.47;;;22.53;52.15
78894;BME280;68282;42.698;23.350;2023-08-01T03:18:18;95076.41;;;22.54;52.31
78894;BME280;68282;42.698;23.350;2023-08-01T03:20:44;95074.28;;;22.51;52.37
78894;BME280;68282;42.698;23.350;2023-08-01T03:23:09;95064.59;;;22.39;52.33
78894;BME280;68282;42.698;23.350;2023-08-01T03:25:35;95074.22;;;22.33;51.98
78894;BME280;68282;42.698;23.350;2023-08-01T03:28:00;95080.53;;;22.25;52.11
78894;BME280;68282;42.698;23.350;2023-08-01T03:30:25;95097.63;;;22.18;52.10
78894;BME280;68282;42.698;23.350;2023-08-01T03:32:51;95100.69;;;22.17;51.76
78894;BME280;68282;42.698;23.350;2023-08-01T03:35:17;95086.25;;;21.97;51.88
78894;BME280;68282;42.698;23.350;2023-08-01T03:37:43;95089.97;;;21.92;51.96
78894;BME280;68282;42.698;23.350;2023-08-01T03:40:08;95095.78;;;21.82;52.10
78894;BME280;68282;42.698;23.350;2023-08-01T03:42:34;95097.63;;;21.64;52.54
78894;BME280;68282;42.698;23.350;2023-08-01T03:45:00;95094.72;;;21.46;53.06
78894;BME280;68282;42.698;23.350;2023-08-01T03:47:25;95093.06;;;21.45;53.31
78894;BME280;68282;42.698;23.350;2023-08-01T03:49:51;95094.56;;;21.52;53.08
78894;BME280;68282;42.698;23.350;2023-08-01T03:52:16;95097.84;;;21.54;53.05
78894;BME280;68282;42.698;23.350;2023-08-01T03:54:42;95096.09;;;21.58;52.93
78894;BME280;68282;42.698;23.350;2023-08-01T03:57:09;95097.44;;;21.60;52.89
78894;BME280;68282;42.698;23.350;2023-08-01T03:59:35;95099.91;;;21.48;53.47
78894;BME280;68282;42.698;23.350;2023-08-01T04:02:01;95102.06;;;21.51;53.49
78894;BME280;68282;42.698;23.350;2023-08-01T04:04:26;95094.53;;;21.43;53.38
78894;BME280;68282;42.698;23.350;2023-08-01T04:06:52;95108.22;;;21.48;53.70
78894;BME280;68282;42.698;23.350;2023-08-01T04:09:17;95106.16;;;21.54;53.34
78894;BME280;68282;42.698;23.350;2023-08-01T04:11:43;95107.59;;;21.51;53.23
78894;BME280;68282;42.698;23.350;2023-08-01T04:14:08;95108.41;;;21.52;53.59
78894;BME280;68282;42.698;23.350;2023-08-01T04:16:34;95104.31;;;21.49;53.53
78894;BME280;68282;42.698;23.350;2023-08-01T04:18:59;95109.41;;;21.56;53.30
78894;BME280;68282;42.698;23.350;2023-08-01T04:21:25;95107.69;;;21.60;53.36
78894;BME280;68282;42.698;23.350;2023-08-01T04:23:50;95111.47;;;21.64;53.25
78894;BME280;68282;42.698;23.350;2023-08-01T04:26:16;95113.41;;;21.64;53.37
78894;BME280;68282;42.698;23.350;2023-08-01T04:28:42;95115.06;;;21.65;52.93
78894;BME280;68282;42.698;23.350;2023-08-01T04:31:07;95116.00;;;21.60;53.24
78894;BME280;68282;42.698;23.350;2023-08-01T04:33:33;95104.31;;;21.49;53.31
78894;BME280;68282;42.698;23.350;2023-08-01T04:35:58;95110.56;;;21.55;53.03
78894;BME280;68282;42.698;23.350;2023-08-01T04:38:23;95102.38;;;21.50;53.06
78894;BME280;68282;42.698;23.350;2023-08-01T04:40:49;95113.00;;;21.56;53.24
78894;BME280;68282;42.698;23.350;2023-08-01T04:43:14;95108.84;;;21.59;53.09
78894;BME280;68282;42.698;23.350;2023-08-01T04:45:40;95102.75;;;21.57;52.88
78894;BME280;68282;42.698;23.350;2023-08-01T04:48:05;95097.09;;;21.62;52.83
78894;BME280;68282;42.698;23.350;2023-08-01T04:50:31;95087.28;;;21.56;52.96
78894;BME280;68282;42.698;23.350;2023-08-01T04:52:56;95101.22;;;21.51;53.02
78894;BME280;68282;42.698;23.350;2023-08-01T04:55:22;95098.94;;;21.44;53.43
78894;BME280;68282;42.698;23.350;2023-08-01T04:57:47;95108.66;;;21.41;53.48
78894;BME280;68282;42.698;23.350;2023-08-01T05:00:13;95103.78;;;21.38;53.51
78894;BME280;68282;42.698;23.350;2023-08-01T05:02:38;95090.63;;;21.44;53.25
78894;BME280;68282;42.698;23.350;2023-08-01T05:05:05;95101.22;;;21.51;53.29
78894;BME280;68282;42.698;23.350;2023-08-01T05:07:30;95094.88;;;21.50;52.63
78894;BME280;68282;42.698;23.350;2023-08-01T05:09:56;95094.47;;;21.57;52.50
78894;BME280;68282;42.698;23.350;2023-08-01T05:12:21;95097.09;;;21.62;52.62
78894;BME280;68282;42.698;23.350;2023-08-01T05:14:47;95103.22;;;21.73;52.25
78894;BME280;68282;42.698;23.350;2023-08-01T05:17:12;95111.19;;;21.74;51.92
78894;BME280;68282;42.698;23.350;2023-08-01T05:19:38;95102.28;;;21.77;52.25
78894;BME280;68282;42.698;23.350;2023-08-01T05:22:03;95108.13;;;21.76;52.30
78894;BME280;68282;42.698;23.350;2023-08-01T05:24:29;95098.22;;;21.84;51.63
78894;BME280;68282;42.698;23.350;2023-08-01T05:26:54;95103.41;;;21.76;51.57
78894;BME280;68282;42.698;23.350;2023-08-01T05:29:20;95111.63;;;21.90;51.63
78894;BME280;68282;42.698;23.350;2023-08-01T05:31:45;95100.03;;;21.88;50.90
78894;BME280;68282;42.698;23.350;2023-08-01T05:34:11;95107.59;;;21.97;50.98
78894;BME280;68282;42.698;23.350;2023-08-01T05:36:36;95114.97;;;22.01;51.07
78894;BME280;68282;42.698;23.350;2023-08-01T05:39:02;95107.28;;;21.98;50.95
78894;BME280;68282;42.698;23.350;2023-08-01T05:41:28;95118.22;;;22.03;50.94
78894;BME280;68282;42.698;23.350;2023-08-01T05:43:54;95113.16;;;22.05;51.29
78894;BME280;68282;42.698;23.350;2023-08-01T05:46:19;95116.63;;;22.11;51.12
78894;BME280;68282;42.698;23.350;2023-08-01T05:48:45;95099.88;;;22.16;50.90
78894;BME280;68282;42.698;23.350;2023-08-01T05:51:10;95108.38;;;22.20;50.85
78894;BME280;68282;42.698;23.350;2023-08-01T05:53:36;95093.53;;;22.16;50.36
78894;BME280;68282;42.698;23.350;2023-08-01T05:56:02;95105.78;;;22.23;50.66
78894;BME280;68282;42.698;23.350;2023-08-01T05:58:27;95099.44;;;22.23;50.92
78894;BME280;68282;42.698;23.350;2023-08-01T06:00:53;95090.88;;;22.11;50.65
78894;BME280;68282;42.698;23.350;2023-08-01T06:03:18;95080.59;;;22.02;50.41
78894;BME280;68282;42.698;23.350;2023-08-01T06:05:44;95093.50;;;22.07;51.78
78894;BME280;68282;42.698;23.350;2023-08-01T06:08:09;95091.53;;;22.07;51.87
78894;BME280;68282;42.698;23.350;2023-08-01T06:10:35;95092.69;;;22.15;51.77
78894;BME280;68282;42.698;23.350;2023-08-01T06:13:01;95094.84;;;22.18;51.35
78894;BME280;68282;42.698;23.350;2023-08-01T06:15:26;95086.38;;;22.23;51.39
78894;BME280;68282;42.698;23.350;2023-08-01T06:17:52;95100.16;;;22.37;51.24
78894;BME280;68282;42.698;23.350;2023-08-01T06:20:17;95095.38;;;22.29;51.22
78894;BME280;68282;42.698;23.350;2023-08-01T06:22:43;95086.88;;;22.26;51.00
78894;BME280;68282;42.698;23.350;2023-08-01T06:25:09;95099.66;;;22.35;51.18
78894;BME280;68282;42.698;23.350;2023-08-01T06:27:34;95095.63;;;22.42;51.11
78894;BME280;68282;42.698;23.350;2023-08-01T06:30:00;95088.59;;;22.44;50.95
78894;BME280;68282;42.698;23.350;2023-08-01T06:32:25;95095.16;;;22.48;50.59
78894;BME280;68282;42.698;23.350;2023-08-01T06:34:51;95088.81;;;22.57;50.55
78894;BME280;68282;42.698;23.350;2023-08-01T06:37:16;95082.44;;;22.47;49.80
78894;BME280;68282;42.698;23.350;2023-08-01T06:39:41;95086.50;;;22.41;50.06
78894;BME280;68282;42.698;23.350;2023-08-01T06:42:07;95083.41;;;22.43;50.05
78894;BME280;68282;42.698;23.350;2023-08-01T06:44:32;95079.50;;;22.44;49.88
78894;BME280;68282;42.698;23.350;2023-08-01T06:46:58;95087.81;;;22.44;50.06
78894;BME280;68282;42.698;23.350;2023-08-01T06:49:23;95089.06;;;22.37;50.34
78894;BME280;68282;42.698;23.350;2023-08-01T06:51:49;95078.97;;;22.42;50.76
78894;BME280;68282;42.698;23.350;2023-08-01T06:54:14;95069.94;;;22.27;50.55
78894;BME280;68282;42.698;23.350;2023-08-01T06:56:39;95080.88;;;22.32;50.56
78894;BME280;68282;42.698;23.350;2023-08-01T06:59:05;95085.19;;;22.47;49.89
78894;BME280;68282;42.698;23.350;2023-08-01T07:01:32;95076.09;;;22.47;50.30
78894;BME280;68282;42.698;23.350;2023-08-01T07:03:59;95078.84;;;22.55;49.79
78894;BME280;68282;42.698;23.350;2023-08-01T07:06:25;95069.78;;;22.64;49.56
78894;BME280;68282;42.698;23.350;2023-08-01T07:08:50;95078.06;;;22.55;49.73
78894;BME280;68282;42.698;23.350;2023-08-01T07:11:16;95060.00;;;22.66;49.20
78894;BME280;68282;42.698;23.350;2023-08-01T07:13:41;95063.44;;;22.81;48.43
78894;BME280;68282;42.698;23.350;2023-08-01T07:16:06;95058.06;;;22.84;48.14
78894;BME280;68282;42.698;23.350;2023-08-01T07:18:32;95059.53;;;22.82;47.86
78894;BME280;68282;42.698;23.350;2023-08-01T07:21:02;95059.03;;;22.89;47.82
78894;BME280;68282;42.698;23.350;2023-08-01T07:23:28;95063.78;;;23.06;47.93
78894;BME280;68282;42.698;23.350;2023-08-01T07:25:54;95068.84;;;23.12;47.72
78894;BME280;68282;42.698;23.350;2023-08-01T07:28:19;95054.03;;;23.08;46.92
78894;BME280;68282;42.698;23.350;2023-08-01T07:30:44;95063.13;;;23.09;47.53
78894;BME280;68282;42.698;23.350;2023-08-01T07:33:10;95048.13;;;23.10;47.85
78894;BME280;68282;42.698;23.350;2023-08-01T07:35:35;95055.63;;;23.18;47.49
78894;BME280;68282;42.698;23.350;2023-08-01T07:38:01;95052.91;;;23.27;47.50
78894;BME280;68282;42.698;23.350;2023-08-01T07:40:26;95043.28;;;23.24;47.12
78894;BME280;68282;42.698;23.350;2023-08-01T07:42:52;95048.66;;;23.38;47.34
78894;BME280;68282;42.698;23.350;2023-08-01T07:45:17;95043.44;;;23.37;46.80
78894;BME280;68282;42.698;23.350;2023-08-01T07:47:44;95052.22;;;23.47;46.24
78894;BME280;68282;42.698;23.350;2023-08-01T07:50:10;95048.81;;;23.51;46.54
78894;BME280;68282;42.698;23.350;2023-08-01T07:52:36;95050.91;;;23.54;46.85
78894;BME280;68282;42.698;23.350;2023-08-01T07:55:02;95046.19;;;23.63;46.46
78894;BME280;68282;42.698;23.350;2023-08-01T07:57:27;95059.22;;;23.71;45.79
78894;BME280;68282;42.698;23.350;2023-08-01T07:59:53;95043.75;;;23.44;46.28
78894;BME280;68282;42.698;23.350;2023-08-01T08:02:18;95042.59;;;23.45;47.08
78894;BME280;68282;42.698;23.350;2023-08-01T08:04:43;95046.00;;;23.59;46.76
78894;BME280;68282;42.698;23.350;2023-08-01T08:07:09;95039.78;;;23.71;46.68
78894;BME280;68282;42.698;23.350;2023-08-01T08:09:34;95034.88;;;23.77;46.53
78894;BME280;68282;42.698;23.350;2023-08-01T08:12:00;95038.59;;;23.90;46.54
78894;BME280;68282;42.698;23.350;2023-08-01T08:14:25;95027.47;;;23.99;46.19
78894;BME280;68282;42.698;23.350;2023-08-01T08:16:51;95037.09;;;24.01;45.61
78894;BME280;68282;42.698;23.350;2023-08-01T08:19:16;95019.19;;;23.72;45.85
78894;BME280;68282;42.698;23.350;2023-08-01T08:21:42;95033.53;;;24.01;45.81
78894;BME280;68282;42.698;23.350;2023-08-01T08:24:08;95013.44;;;23.95;45.28
78894;BME280;68282;42.698;23.350;2023-08-01T08:26:33;95016.16;;;24.04;45.56
78894;BME280;68282;42.698;23.350;2023-08-01T08:29:03;95013.06;;;24.14;45.19
78894;BME280;68282;42.698;23.350;2023-08-01T08:31:30;95005.38;;;24.11;45.71
78894;BME280;68282;42.698;23.350;2023-08-01T08:33:56;95010.19;;;24.32;44.68
78894;BME280;68282;42.698;23.350;2023-08-01T08:36:21;95005.25;;;24.37;43.92
78894;BME280;68282;42.698;23.350;2023-08-01T08:38:47;95011.22;;;24.48;43.69
78894;BME280;68282;42.698;23.350;2023-08-01T08:41:20;94998.91;;;24.58;43.82
78894;BME280;68282;42.698;23.350;2023-08-01T08:43:47;95003.28;;;24.68;44.26
78894;BME280;68282;42.698;23.350;2023-08-01T08:46:15;94994.09;;;24.76;44.19
78894;BME280;68282;42.698;23.350;2023-08-01T08:48:41;94989.47;;;24.80;44.03
78894;BME280;68282;42.698;23.350;2023-08-01T08:51:08;94990.06;;;24.86;43.17
78894;BME280;68282;42.698;23.350;2023-08-01T08:53:35;94988.59;;;24.89;43.09
78894;BME280;68282;42.698;23.350;2023-08-01T08:56:01;94983.91;;;24.80;43.37
78894;BME280;68282;42.698;23.350;2023-08-01T08:58:29;94976.75;;;24.92;43.73
78894;BME280;68282;42.698;23.350;2023-08-01T09:00:55;94975.44;;;24.98;43.65
78894;BME280;68282;42.698;23.350;2023-08-01T09:03:21;94979.53;;;24.92;42.35
78894;BME280;68282;42.698;23.350;2023-08-01T09:05:51;94975.56;;;25.01;43.29
78894;BME280;68282;42.698;23.350;2023-08-01T09:08:21;94977.53;;;25.01;42.22
78894;BME280;68282;42.698;23.350;2023-08-01T09:10:47;94977.13;;;25.11;42.68
78894;BME280;68282;42.698;23.350;2023-08-01T09:13:13;94963.81;;;25.17;42.55
78894;BME280;68282;42.698;23.350;2023-08-01T09:15:41;94955.09;;;25.19;42.51
78894;BME280;68282;42.698;23.350;2023-08-01T09:18:08;94946.22;;;25.25;42.52
78894;BME280;68282;42.698;23.350;2023-08-01T09:20:45;94956.56;;;25.37;40.94
78894;BME280;68282;42.698;23.350;2023-08-01T09:23:11;94964.19;;;25.49;41.16
78894;BME280;68282;42.698;23.350;2023-08-01T09:25:37;94956.31;;;25.51;41.08
78894;BME280;68282;42.698;23.350;2023-08-01T09:28:02;94960.41;;;25.66;40.04
78894;BME280;68282;42.698;23.350;2023-08-01T09:30:28;94949.84;;;25.72;40.13
78894;BME280;68282;42.698;23.350;2023-08-01T09:32:55;94954.25;;;25.73;39.74
78894;BME280;68282;42.698;23.350;2023-08-01T09:35:21;94946.47;;;25.66;40.07
78894;BME280;68282;42.698;23.350;2023-08-01T09:37:47;94943.72;;;25.78;40.37
78894;BME280;68282;42.698;23.350;2023-08-01T09:40:13;94937.44;;;25.82;40.22
78894;BME280;68282;42.698;23.350;2023-08-01T09:42:40;94938.94;;;25.91;40.17
78894;BME280;68282;42.698;23.350;2023-08-01T09:45:14;94940.22;;;26.06;39.30
78894;BME280;68282;42.698;23.350;2023-08-01T09:47:41;94939.44;;;26.18;39.71
78894;BME280;68282;42.698;23.350;2023-08-01T09:50:07;94932.59;;;26.28;38.68
78894;BME280;68282;42.698;23.350;2023-08-01T09:52:32;94925.63;;;26.34;38.54
78894;BME280;68282;42.698;23.350;2023-08-01T09:54:58;94919.13;;;26.43;39.57
78894;BME280;68282;42.698;23.350;2023-08-01T09:57:26;94924.19;;;26.53;38.93
78894;BME280;68282;42.698;23.350;2023-08-01T09:59:55;94915.72;;;26.62;38.24
78894;BME280;68282;42.698;23.350;2023-08-01T10:02:24;94896.28;;;26.65;38.17
78894;BME280;68282;42.698;23.350;2023-08-01T10:04:52;94899.88;;;26.78;38.53
78894;BME280;68282;42.698;23.350;2023-08-01T10:07:23;94904.66;;;26.78;37.51
78894;BME280;68282;42.698;23.350;2023-08-01T10:09:49;94903.69;;;26.74;38.69
78894;BME280;68282;42.698;23.350;2023-08-01T10:12:17;94901.28;;;26.72;37.66
78894;BME280;68282;42.698;23.350;2023-08-01T10:14:44;94897.66;;;26.84;37.97
78894;BME280;68282;42.698;23.350;2023-08-01T10:17:10;94896.59;;;26.76;37.39
78894;BME280;68282;42.698;23.350;2023-08-01T10:19:40;94894.97;;;26.75;37.53
78894;BME280;68282;42.698;23.350;2023-08-01T10:22:07;94889.28;;;26.84;37.92
78894;BME280;68282;42.698;23.350;2023-08-01T10:24:35;94889.94;;;26.93;37.42
78894;BME280;68282;42.698;23.350;2023-08-01T10:27:21;94883.38;;;27.01;36.81
78894;BME280;68282;42.698;23.350;2023-08-01T10:30:00;94877.19;;;27.08;37.43
78894;BME280;68282;42.698;23.350;2023-08-01T10:32:37;94872.25;;;27.17;36.88
78894;BME280;68282;42.698;23.350;2023-08-01T10:35:04;94875.72;;;27.27;37.54
78894;BME280;68282;42.698;23.350;2023-08-01T10:37:46;94876.50;;;27.27;38.28
78894;BME280;68282;42.698;23.350;2023-08-01T10:40:14;94865.16;;;27.49;37.69
78894;BME280;68282;42.698;23.350;2023-08-01T10:42:40;94857.66;;;27.69;36.89
78894;BME280;68282;42.698;23.350;2023-08-01T10:45:29;94854.06;;;27.84;35.77
78894;BME280;68282;42.698;23.350;2023-08-01T10:48:06;94863.25;;;27.69;35.13
78894;BME280;68282;42.698;23.350;2023-08-01T10:50:32;94849.81;;;27.74;35.66
78894;BME280;68282;42.698;23.350;2023-08-01T10:53:08;94851.72;;;27.86;35.95
78894;BME280;68282;42.698;23.350;2023-08-01T10:55:40;94843.59;;;27.81;35.39
78894;BME280;68282;42.698;23.350;2023-08-01T10:58:05;94858.09;;;27.71;35.77
78894;BME280;68282;42.698;23.350;2023-08-01T11:00:31;94841.53;;;27.62;34.97
78894;BME280;68282;42.698;23.350;2023-08-01T11:02:56;94842.34;;;27.78;34.91
78894;BME280;68282;42.698;23.350;2023-08-01T11:05:22;94839.38;;;27.87;35.11
78894;BME280;68282;42.698;23.350;2023-08-01T11:08:00;94828.16;;;28.03;34.17
78894;BME280;68282;42.698;23.350;2023-08-01T11:10:27;94826.78;;;28.13;33.70
78894;BME280;68282;42.698;23.350;2023-08-01T11:12:53;94823.69;;;28.34;33.52
78894;BME280;68282;42.698;23.350;2023-08-01T11:15:19;94818.03;;;28.50;33.83
78894;BME280;68282;42.698;23.350;2023-08-01T11:17:49;94823.19;;;28.68;34.12
78894;BME280;68282;42.698;23.350;2023-08-01T11:20:16;94805.47;;;28.80;33.30
78894;BME280;68282;42.698;23.350;2023-08-01T11:22:57;94807.06;;;29.00;31.91
78894;BME280;68282;42.698;23.350;2023-08-01T11:25:32;94800.13;;;29.14;31.85
78894;BME280;68282;42.698;23.350;2023-08-01T11:28:04;94804.16;;;29.16;32.28
78894;BME280;68282;42.698;23.350;2023-08-01T11:30:31;94800.75;;;29.27;31.47
78894;BME280;68282;42.698;23.350;2023-08-01T11:32:58;94787.25;;;29.33;31.73
78894;BME280;68282;42.698;23.350;2023-08-01T11:35:23;94797.47;;;29.44;31.30
78894;BME280;68282;42.698;23.350;2023-08-01T11:37:50;94797.41;;;29.64;31.20
78894;BME280;68282;42.698;23.350;2023-08-01T11:40:17;94790.78;;;29.76;31.45
78894;BME280;68282;42.698;23.350;2023-08-01T11:42:42;94792.84;;;29.79;30.59
78894;BME280;68282;42.698;23.350;2023-08-01T11:45:13;94780.84;;;29.82;30.12
78894;BME280;68282;42.698;23.350;2023-08-01T11:47:48;94775.63;;;29.81;30.40
78894;BME280;68282;42.698;23.350;2023-08-01T11:50:14;94776.13;;;29.86;30.66
78894;BME280;68282;42.698;23.350;2023-08-01T11:52:46;94764.53;;;29.88;30.29
78894;BME280;68282;42.698;23.350;2023-08-01T11:55:21;94770.88;;;30.08;30.64
78894;BME280;68282;42.698;23.350;2023-08-01T11:57:57;94769.28;;;30.11;30.10
78894;BME280;68282;42.698;23.350;2023-08-01T12:00:27;94768.63;;;30.21;30.20
78894;BME280;68282;42.698;23.350;2023-08-01T12:03:07;94752.44;;;30.37;29.65
78894;BME280;68282;42.698;23.350;2023-08-01T12:05:34;94755.34;;;30.48;30.06
78894;BME280;68282;42.698;23.350;2023-08-01T12:08:10;94749.59;;;30.64;29.77
78894;BME280;68282;42.698;23.350;2023-08-01T12:10:41;94750.97;;;30.81;30.31
78894;BME280;68282;42.698;23.350;2023-08-01T12:13:19;94749.97;;;31.00;29.78
78894;BME280;68282;42.698;23.350;2023-08-01T12:15:46;94747.72;;;31.13;29.09
78894;BME280;68282;42.698;23.350;2023-08-01T12:18:22;94750.22;;;31.26;28.69
78894;BME280;68282;42.698;23.350;2023-08-01T12:20:48;94732.63;;;31.33;29.07
78894;BME280;68282;42.698;23.350;2023-08-01T12:23:13;94735.91;;;31.38;28.51
78894;BME280;68282;42.698;23.350;2023-08-01T12:25:39;94732.34;;;31.45;28.39
78894;BME280;68282;42.698;23.350;2023-08-01T12:28:04;94721.56;;;31.51;28.22
78894;BME280;68282;42.698;23.350;2023-08-01T12:30:34;94722.81;;;31.57;28.72
78894;BME280;68282;42.698;23.350;2023-08-01T12:33:00;94721.63;;;31.58;28.18
78894;BME280;68282;42.698;23.350;2023-08-01T12:35:27;94721.66;;;31.61;27.55
78894;BME280;68282;42.698;23.350;2023-08-01T12:37:55;94719.66;;;31.66;27.56
78894;BME280;68282;42.698;23.350;2023-08-01T12:40:21;94718.50;;;31.70;28.43
78894;BME280;68282;42.698;23.350;2023-08-01T12:42:47;94698.44;;;31.68;27.98
78894;BME280;68282;42.698;23.350;2023-08-01T12:45:12;94711.28;;;31.69;28.44
78894;BME280;68282;42.698;23.350;2023-08-01T12:47:38;94711.31;;;31.73;28.03